sensor_id;sensor_type;location;lat;lon;timestamp;temperature;humidity
3005;DHT22;1512;51.486;6.610;2023-10-31T00:03:01;11.90;99.90
3005;DHT22;1512;51.486;6.610;2023-10-31T00:07:10;11.70;99.90
3005;DHT22;1512;51.486;6.610;2023-10-31T00:11:19;11.60;99.90
3005;DHT22;1512;51.486;6.610;2023-10-31T00:15:27;11.60;99.90
3005;DHT22;1512;51.486;6.610;2023-10-31T00:19:38;11.60;99.90
3005;DHT22;1512;51.486;6.610;2023-10-31T00:23:47;11.60;99.90
3005;DHT22;1512;51.486;6.610;2023-10-31T00:27:56;11.50;99.90
3005;DHT22;1512;51.486;6.610;2023-10-31T00:32:05;11.40;99.90
3005;DHT22;1512;51.486;6.610;2023-10-31T00:36:14;11.40;99.90
3005;DHT22;1512;51.486;6.610;2023-10-31T00:40:22;11.30;99.90
3005;DHT22;1512;51.486;6.610;2023-10-31T00:44:31;11.30;99.90
3005;DHT22;1512;51.486;6.610;2023-10-31T00:48:40;11.20;99.90
3005;DHT22;1512;51.486;6.610;2023-10-31T00:52:48;11.10;99.90
3005;DHT22;1512;51.486;6.610;2023-10-31T00:57:16;11.10;99.90
3005;DHT22;1512;51.486;6.610;2023-10-31T01:01:25;11.10;99.90
3005;DHT22;1512;51.486;6.610;2023-10-31T01:05:34;11.10;99.90
3005;DHT22;1512;51.486;6.610;2023-10-31T01:09:43;11.10;99.90
3005;DHT22;1512;51.486;6.610;2023-10-31T01:13:52;11.10;99.90
3005;DHT22;1512;51.486;6.610;2023-10-31T01:18:01;11.10;99.90
3005;DHT22;1512;51.486;6.610;2023-10-31T01:22:09;11.10;99.90
3005;DHT22;1512;51.486;6.610;2023-10-31T01:26:18;11.10;99.90
3005;DHT22;1512;51.486;6.610;2023-10-31T01:30:26;11.10;99.90
3005;DHT22;1512;51.486;6.610;2023-10-31T01:34:35;11.10;99.90
3005;DHT22;1512;51.486;6.610;2023-10-31T01:38:44;11.10;99.90
3005;DHT22;1512;51.486;6.610;2023-10-31T01:42:55;11.10;99.90
3005;DHT22;1512;51.486;6.610;2023-10-31T01:47:04;11.20;99.90
3005;DHT22;1512;51.486;6.610;2023-10-31T01:51:12;11.20;99.90
3005;DHT22;1512;51.486;6.610;2023-10-31T01:55:21;11.20;99.90
3005;DHT22;1512;51.486;6.610;2023-10-31T01:59:32;11.20;99.90
3005;DHT22;1512;51.486;6.610;2023-10-31T02:03:41;11.20;99.90
3005;DHT22;1512;51.486;6.610;2023-10-31T02:07:49;11.20;99.90
3005;DHT22;1512;51.486;6.610;2023-10-31T02:11:58;11.20;99.90
3005;DHT22;1512;51.486;6.610;2023-10-31T02:16:07;11.10;99.90
3005;DHT22;1512;51.486;6.610;2023-10-31T02:20:16;11.10;99.90
3005;DHT22;1512;51.486;6.610;2023-10-31T02:24:24;11.10;99.90
3005;DHT22;1512;51.486;6.610;2023-10-31T02:28:33;11.10;99.90
3005;DHT22;1512;51.486;6.610;2023-10-31T02:32:41;11.10;99.90
3005;DHT22;1512;51.486;6.610;2023-10-31T02:36:50;11.10;99.90
3005;DHT22;1512;51.486;6.610;2023-10-31T02:40:59;11.10;99.90
3005;DHT22;1512;51.486;6.610;2023-10-31T02:45:08;11.10;99.90
3005;DHT22;1512;51.486;6.610;2023-10-31T02:49:17;11.10;99.90
3005;DHT22;1512;51.486;6.610;2023-10-31T02:53:25;11.10;99.90
3005;DHT22;1512;51.486;6.610;2023-10-31T02:57:34;11.10;99.90
3005;DHT22;1512;51.486;6.610;2023-10-31T03:01:42;11.10;99.90
3005;DHT22;1512;51.486;6.610;2023-10-31T03:05:51;11.10;99.90
3005;DHT22;1512;51.486;6.610;2023-10-31T03:10:03;11.10;99.90
3005;DHT22;1512;51.486;6.610;2023-10-31T03:14:12;11.10;99.90
3005;DHT22;1512;51.486;6.610;2023-10-31T03:18:20;11.10;99.90
3005;DHT22;1512;51.486;6.610;2023-10-31T03:22:30;11.10;99.90
3005;DHT22;1512;51.486;6.610;2023-10-31T03:26:39;11.10;99.90
3005;DHT22;1512;51.486;6.610;2023-10-31T03:30:48;11.10;99.90
3005;DHT22;1512;51.486;6.610;2023-10-31T03:34:57;11.10;99.90
3005;DHT22;1512;51.486;6.610;2023-10-31T03:39:05;11.10;99.90
3005;DHT22;1512;51.486;6.610;2023-10-31T03:43:33;11.10;99.90
3005;DHT22;1512;51.486;6.610;2023-10-31T03:47:42;11.10;99.90
3005;DHT22;1512;51.486;6.610;2023-10-31T03:51:51;11.10;99.90
3005;DHT22;1512;51.486;6.610;2023-10-31T03:55:59;11.10;99.90
3005;DHT22;1512;51.486;6.610;2023-10-31T04:00:08;11.10;99.90
3005;DHT22;1512;51.486;6.610;2023-10-31T04:04:19;11.10;99.90
3005;DHT22;1512;51.486;6.610;2023-10-31T04:08:27;11.10;99.90
3005;DHT22;1512;51.486;6.610;2023-10-31T04:12:36;11.10;99.90
3005;DHT22;1512;51.486;6.610;2023-10-31T04:16:45;11.10;99.90
3005;DHT22;1512;51.486;6.610;2023-10-31T04:20:54;11.20;99.90
3005;DHT22;1512;51.486;6.610;2023-10-31T04:25:03;11.20;99.90
3005;DHT22;1512;51.486;6.610;2023-10-31T04:29:12;11.10;99.90
3005;DHT22;1512;51.486;6.610;2023-10-31T04:33:21;11.10;99.90
3005;DHT22;1512;51.486;6.610;2023-10-31T04:37:30;11.10;99.90
3005;DHT22;1512;51.486;6.610;2023-10-31T04:41:40;11.10;99.90
3005;DHT22;1512;51.486;6.610;2023-10-31T04:45:49;11.10;99.90
3005;DHT22;1512;51.486;6.610;2023-10-31T04:49:57;11.10;99.90
3005;DHT22;1512;51.486;6.610;2023-10-31T04:54:06;11.10;99.90
3005;DHT22;1512;51.486;6.610;2023-10-31T04:58:14;11.10;99.90
3005;DHT22;1512;51.486;6.610;2023-10-31T05:02:23;11.10;99.90
3005;DHT22;1512;51.486;6.610;2023-10-31T05:06:32;11.10;99.90
3005;DHT22;1512;51.486;6.610;2023-10-31T05:10:40;11.10;99.90
3005;DHT22;1512;51.486;6.610;2023-10-31T05:14:49;11.10;99.90
3005;DHT22;1512;51.486;6.610;2023-10-31T05:18:58;11.10;99.90
3005;DHT22;1512;51.486;6.610;2023-10-31T05:23:08;11.10;99.90
3005;DHT22;1512;51.486;6.610;2023-10-31T05:27:17;11.10;99.90
3005;DHT22;1512;51.486;6.610;2023-10-31T05:31:26;11.10;99.90
3005;DHT22;1512;51.486;6.610;2023-10-31T05:35:35;11.10;99.90
3005;DHT22;1512;51.486;6.610;2023-10-31T05:39:43;11.10;99.90
3005;DHT22;1512;51.486;6.610;2023-10-31T05:43:52;11.10;99.90
3005;DHT22;1512;51.486;6.610;2023-10-31T05:48:01;11.10;99.90
3005;DHT22;1512;51.486;6.610;2023-10-31T05:52:09;11.10;99.90
3005;DHT22;1512;51.486;6.610;2023-10-31T05:56:18;11.00;99.90
3005;DHT22;1512;51.486;6.610;2023-10-31T06:00:27;11.10;99.90
3005;DHT22;1512;51.486;6.610;2023-10-31T06:04:35;11.10;99.90
3005;DHT22;1512;51.486;6.610;2023-10-31T06:08:44;11.10;99.90
3005;DHT22;1512;51.486;6.610;2023-10-31T06:12:53;11.10;99.90
3005;DHT22;1512;51.486;6.610;2023-10-31T06:17:01;11.00;99.90
3005;DHT22;1512;51.486;6.610;2023-10-31T06:21:10;11.10;99.90
3005;DHT22;1512;51.486;6.610;2023-10-31T06:25:19;11.00;99.90
3005;DHT22;1512;51.486;6.610;2023-10-31T06:29:27;11.00;99.90
3005;DHT22;1512;51.486;6.610;2023-10-31T06:33:37;11.10;99.90
3005;DHT22;1512;51.486;6.610;2023-10-31T06:37:46;11.00;99.90
3005;DHT22;1512;51.486;6.610;2023-10-31T06:41:55;11.00;99.90
3005;DHT22;1512;51.486;6.610;2023-10-31T06:46:04;11.00;99.90
3005;DHT22;1512;51.486;6.610;2023-10-31T06:50:14;11.00;99.90
3005;DHT22;1512;51.486;6.610;2023-10-31T06:54:24;11.00;99.90
3005;DHT22;1512;51.486;6.610;2023-10-31T06:58:33;11.00;99.90
3005;DHT22;1512;51.486;6.610;2023-10-31T07:02:42;11.00;99.90
3005;DHT22;1512;51.486;6.610;2023-10-31T07:06:51;11.00;99.90
3005;DHT22;1512;51.486;6.610;2023-10-31T07:11:04;11.00;99.90
3005;DHT22;1512;51.486;6.610;2023-10-31T07:15:12;11.10;99.90
3005;DHT22;1512;51.486;6.610;2023-10-31T07:19:21;11.10;99.90
3005;DHT22;1512;51.486;6.610;2023-10-31T07:23:30;11.10;99.90
3005;DHT22;1512;51.486;6.610;2023-10-31T07:27:38;11.10;99.90
3005;DHT22;1512;51.486;6.610;2023-10-31T07:31:47;11.20;99.90
3005;DHT22;1512;51.486;6.610;2023-10-31T07:35:56;11.20;99.90
3005;DHT22;1512;51.486;6.610;2023-10-31T07:40:05;11.20;99.90
3005;DHT22;1512;51.486;6.610;2023-10-31T07:44:14;11.20;99.90
3005;DHT22;1512;51.486;6.610;2023-10-31T07:48:22;11.20;99.90
3005;DHT22;1512;51.486;6.610;2023-10-31T07:52:31;11.20;99.90
3005;DHT22;1512;51.486;6.610;2023-10-31T07:56:40;11.20;99.90
3005;DHT22;1512;51.486;6.610;2023-10-31T08:00:48;11.20;99.90
3005;DHT22;1512;51.486;6.610;2023-10-31T08:04:57;11.30;99.90
3005;DHT22;1512;51.486;6.610;2023-10-31T08:09:06;11.20;99.90
3005;DHT22;1512;51.486;6.610;2023-10-31T08:13:16;11.30;99.90
3005;DHT22;1512;51.486;6.610;2023-10-31T08:17:25;11.30;99.90
3005;DHT22;1512;51.486;6.610;2023-10-31T08:21:33;11.30;99.90
3005;DHT22;1512;51.486;6.610;2023-10-31T08:25:43;11.30;99.90
3005;DHT22;1512;51.486;6.610;2023-10-31T08:29:52;11.30;99.90
3005;DHT22;1512;51.486;6.610;2023-10-31T08:34:01;11.30;99.90
3005;DHT22;1512;51.486;6.610;2023-10-31T08:38:09;11.40;99.90
3005;DHT22;1512;51.486;6.610;2023-10-31T08:42:19;11.40;99.90
3005;DHT22;1512;51.486;6.610;2023-10-31T08:46:29;11.50;99.90
3005;DHT22;1512;51.486;6.610;2023-10-31T08:50:38;11.60;99.90
3005;DHT22;1512;51.486;6.610;2023-10-31T08:54:46;11.70;99.90
3005;DHT22;1512;51.486;6.610;2023-10-31T08:58:55;11.60;99.90
3005;DHT22;1512;51.486;6.610;2023-10-31T09:03:03;11.70;99.90
3005;DHT22;1512;51.486;6.610;2023-10-31T09:07:13;11.70;99.90
3005;DHT22;1512;51.486;6.610;2023-10-31T09:11:22;11.70;99.90
3005;DHT22;1512;51.486;6.610;2023-10-31T09:15:30;11.70;99.90
3005;DHT22;1512;51.486;6.610;2023-10-31T09:19:39;11.60;99.90
3005;DHT22;1512;51.486;6.610;2023-10-31T09:23:48;11.60;99.90
3005;DHT22;1512;51.486;6.610;2023-10-31T09:27:57;11.60;99.90
3005;DHT22;1512;51.486;6.610;2023-10-31T09:32:09;11.60;99.90
3005;DHT22;1512;51.486;6.610;2023-10-31T09:36:19;11.70;99.90
3005;DHT22;1512;51.486;6.610;2023-10-31T09:40:28;11.80;99.90
3005;DHT22;1512;51.486;6.610;2023-10-31T09:44:36;11.90;99.90
3005;DHT22;1512;51.486;6.610;2023-10-31T09:48:45;12.00;99.90
3005;DHT22;1512;51.486;6.610;2023-10-31T09:52:56;12.00;99.90
3005;DHT22;1512;51.486;6.610;2023-10-31T09:57:04;12.10;99.90
3005;DHT22;1512;51.486;6.610;2023-10-31T10:01:14;12.10;99.90
3005;DHT22;1512;51.486;6.610;2023-10-31T10:05:23;12.20;99.90
3005;DHT22;1512;51.486;6.610;2023-10-31T10:09:33;12.20;99.90
3005;DHT22;1512;51.486;6.610;2023-10-31T10:13:42;12.10;99.90
3005;DHT22;1512;51.486;6.610;2023-10-31T10:17:51;12.10;99.90
3005;DHT22;1512;51.486;6.610;2023-10-31T10:22:00;12.00;99.90
3005;DHT22;1512;51.486;6.610;2023-10-31T10:26:08;12.10;99.90
3005;DHT22;1512;51.486;6.610;2023-10-31T10:30:17;12.20;99.90
3005;DHT22;1512;51.486;6.610;2023-10-31T10:34:26;12.20;99.90
3005;DHT22;1512;51.486;6.610;2023-10-31T10:38:36;12.30;99.90
3005;DHT22;1512;51.486;6.610;2023-10-31T10:42:47;12.30;99.90
3005;DHT22;1512;51.486;6.610;2023-10-31T10:46:58;12.40;99.90
3005;DHT22;1512;51.486;6.610;2023-10-31T10:51:17;12.40;99.90
3005;DHT22;1512;51.486;6.610;2023-10-31T10:55:29;12.40;99.90
3005;DHT22;1512;51.486;6.610;2023-10-31T10:59:42;12.40;99.90
3005;DHT22;1512;51.486;6.610;2023-10-31T11:03:52;12.40;99.90
3005;DHT22;1512;51.486;6.610;2023-10-31T11:08:02;12.40;99.90
3005;DHT22;1512;51.486;6.610;2023-10-31T11:12:12;12.50;99.90
3005;DHT22;1512;51.486;6.610;2023-10-31T11:16:25;12.50;99.90
3005;DHT22;1512;51.486;6.610;2023-10-31T11:20:33;12.70;99.90
3005;DHT22;1512;51.486;6.610;2023-10-31T11:24:42;12.80;99.90
3005;DHT22;1512;51.486;6.610;2023-10-31T11:28:51;12.90;99.90
3005;DHT22;1512;51.486;6.610;2023-10-31T11:33:00;12.90;99.90
3005;DHT22;1512;51.486;6.610;2023-10-31T11:37:27;13.00;1.00
3005;DHT22;1512;51.486;6.610;2023-10-31T11:41:37;13.00;53.20
3005;DHT22;1512;51.486;6.610;2023-10-31T11:45:48;13.10;1.00
3005;DHT22;1512;51.486;6.610;2023-10-31T11:49:57;13.00;1.00
3005;DHT22;1512;51.486;6.610;2023-10-31T11:54:07;13.00;1.00
3005;DHT22;1512;51.486;6.610;2023-10-31T11:58:18;13.00;1.00
3005;DHT22;1512;51.486;6.610;2023-10-31T12:02:27;13.00;1.00
3005;DHT22;1512;51.486;6.610;2023-10-31T12:06:36;13.10;1.00
3005;DHT22;1512;51.486;6.610;2023-10-31T12:10:45;13.20;1.00
3005;DHT22;1512;51.486;6.610;2023-10-31T12:15:03;13.30;1.00
3005;DHT22;1512;51.486;6.610;2023-10-31T12:19:06;13.30;1.00
3005;DHT22;1512;51.486;6.610;2023-10-31T12:23:15;13.30;1.00
3005;DHT22;1512;51.486;6.610;2023-10-31T12:27:24;13.40;1.00
3005;DHT22;1512;51.486;6.610;2023-10-31T12:31:33;13.40;1.00
3005;DHT22;1512;51.486;6.610;2023-10-31T12:35:43;13.50;1.00
3005;DHT22;1512;51.486;6.610;2023-10-31T12:39:52;13.40;1.00
3005;DHT22;1512;51.486;6.610;2023-10-31T12:44:01;13.50;1.00
3005;DHT22;1512;51.486;6.610;2023-10-31T12:48:12;13.60;1.00
3005;DHT22;1512;51.486;6.610;2023-10-31T12:52:21;13.70;1.00
3005;DHT22;1512;51.486;6.610;2023-10-31T12:56:42;13.70;1.00
3005;DHT22;1512;51.486;6.610;2023-10-31T13:00:51;13.80;1.00
3005;DHT22;1512;51.486;6.610;2023-10-31T13:05:15;13.80;1.00
3005;DHT22;1512;51.486;6.610;2023-10-31T13:09:33;13.80;1.00
3005;DHT22;1512;51.486;6.610;2023-10-31T13:13:42;13.90;1.00
3005;DHT22;1512;51.486;6.610;2023-10-31T13:17:52;13.90;1.00
3005;DHT22;1512;51.486;6.610;2023-10-31T13:22:00;13.80;1.00
3005;DHT22;1512;51.486;6.610;2023-10-31T13:26:10;13.60;1.00
3005;DHT22;1512;51.486;6.610;2023-10-31T13:30:18;13.50;1.00
3005;DHT22;1512;51.486;6.610;2023-10-31T13:34:28;13.60;1.00
3005;DHT22;1512;51.486;6.610;2023-10-31T13:38:39;13.60;1.00
3005;DHT22;1512;51.486;6.610;2023-10-31T13:42:47;13.70;1.00
3005;DHT22;1512;51.486;6.610;2023-10-31T13:46:56;13.80;1.00
3005;DHT22;1512;51.486;6.610;2023-10-31T13:51:05;14.00;1.00
3005;DHT22;1512;51.486;6.610;2023-10-31T13:55:13;14.00;1.00
3005;DHT22;1512;51.486;6.610;2023-10-31T13:59:22;14.00;1.00
3005;DHT22;1512;51.486;6.610;2023-10-31T14:03:31;14.10;1.00
3005;DHT22;1512;51.486;6.610;2023-10-31T14:07:40;14.00;1.00
3005;DHT22;1512;51.486;6.610;2023-10-31T14:11:48;14.00;1.00
3005;DHT22;1512;51.486;6.610;2023-10-31T14:15:57;14.00;1.00
3005;DHT22;1512;51.486;6.610;2023-10-31T14:20:06;13.90;1.00
3005;DHT22;1512;51.486;6.610;2023-10-31T14:24:15;13.80;1.00
3005;DHT22;1512;51.486;6.610;2023-10-31T14:28:24;13.70;1.00
3005;DHT22;1512;51.486;6.610;2023-10-31T14:32:33;13.60;1.00
3005;DHT22;1512;51.486;6.610;2023-10-31T14:36:42;13.50;1.00
3005;DHT22;1512;51.486;6.610;2023-10-31T14:40:51;13.30;1.00
3005;DHT22;1512;51.486;6.610;2023-10-31T14:44:59;13.30;1.00
3005;DHT22;1512;51.486;6.610;2023-10-31T14:49:08;13.20;1.00
3005;DHT22;1512;51.486;6.610;2023-10-31T14:53:18;13.20;1.00
3005;DHT22;1512;51.486;6.610;2023-10-31T14:57:29;13.20;1.00
3005;DHT22;1512;51.486;6.610;2023-10-31T15:01:38;13.10;1.00
3005;DHT22;1512;51.486;6.610;2023-10-31T15:05:47;13.00;1.00
3005;DHT22;1512;51.486;6.610;2023-10-31T15:09:57;13.00;1.00
3005;DHT22;1512;51.486;6.610;2023-10-31T15:14:07;12.90;1.00
3005;DHT22;1512;51.486;6.610;2023-10-31T15:18:16;12.90;1.00
3005;DHT22;1512;51.486;6.610;2023-10-31T15:22:25;12.90;1.00
3005;DHT22;1512;51.486;6.610;2023-10-31T15:26:33;12.90;1.00
3005;DHT22;1512;51.486;6.610;2023-10-31T15:30:42;12.90;1.00
3005;DHT22;1512;51.486;6.610;2023-10-31T15:34:51;12.80;1.00
3005;DHT22;1512;51.486;6.610;2023-10-31T15:38:59;12.90;1.00
3005;DHT22;1512;51.486;6.610;2023-10-31T15:43:08;12.80;1.00
3005;DHT22;1512;51.486;6.610;2023-10-31T15:47:17;12.70;1.00
3005;DHT22;1512;51.486;6.610;2023-10-31T15:51:25;12.80;1.00
3005;DHT22;1512;51.486;6.610;2023-10-31T15:55:53;12.70;1.00
3005;DHT22;1512;51.486;6.610;2023-10-31T16:00:02;12.70;1.00
3005;DHT22;1512;51.486;6.610;2023-10-31T16:04:11;12.70;1.00
3005;DHT22;1512;51.486;6.610;2023-10-31T16:08:20;12.60;15.60
3005;DHT22;1512;51.486;6.610;2023-10-31T16:12:29;12.70;33.90
3005;DHT22;1512;51.486;6.610;2023-10-31T16:16:37;12.60;99.90
3005;DHT22;1512;51.486;6.610;2023-10-31T16:20:46;12.60;99.90
3005;DHT22;1512;51.486;6.610;2023-10-31T16:24:56;12.50;1.00
3005;DHT22;1512;51.486;6.610;2023-10-31T16:29:05;12.40;1.00
3005;DHT22;1512;51.486;6.610;2023-10-31T16:33:16;12.30;1.00
3005;DHT22;1512;51.486;6.610;2023-10-31T16:37:24;12.20;1.00
3005;DHT22;1512;51.486;6.610;2023-10-31T16:41:33;12.10;1.00
3005;DHT22;1512;51.486;6.610;2023-10-31T16:45:42;12.10;1.00
3005;DHT22;1512;51.486;6.610;2023-10-31T16:49:52;12.10;1.00
3005;DHT22;1512;51.486;6.610;2023-10-31T16:54:00;12.00;1.00
3005;DHT22;1512;51.486;6.610;2023-10-31T16:58:09;12.10;1.00
3005;DHT22;1512;51.486;6.610;2023-10-31T17:02:18;12.10;1.00
3005;DHT22;1512;51.486;6.610;2023-10-31T17:06:26;12.10;1.00
3005;DHT22;1512;51.486;6.610;2023-10-31T17:10:35;12.00;18.30
3005;DHT22;1512;51.486;6.610;2023-10-31T17:14:44;12.00;99.90
3005;DHT22;1512;51.486;6.610;2023-10-31T17:18:53;12.00;99.90
3005;DHT22;1512;51.486;6.610;2023-10-31T17:23:01;11.90;99.90
3005;DHT22;1512;51.486;6.610;2023-10-31T17:27:11;11.90;99.90
3005;DHT22;1512;51.486;6.610;2023-10-31T17:31:20;11.90;99.90
3005;DHT22;1512;51.486;6.610;2023-10-31T17:35:29;11.90;99.90
3005;DHT22;1512;51.486;6.610;2023-10-31T17:39:38;11.90;99.90
3005;DHT22;1512;51.486;6.610;2023-10-31T17:43:46;11.90;99.90
3005;DHT22;1512;51.486;6.610;2023-10-31T17:47:55;11.90;99.90
3005;DHT22;1512;51.486;6.610;2023-10-31T17:52:04;11.80;99.90
3005;DHT22;1512;51.486;6.610;2023-10-31T17:56:13;11.80;99.90
3005;DHT22;1512;51.486;6.610;2023-10-31T18:00:22;11.80;99.90
3005;DHT22;1512;51.486;6.610;2023-10-31T18:04:30;11.70;99.90
3005;DHT22;1512;51.486;6.610;2023-10-31T18:08:39;11.80;99.90
3005;DHT22;1512;51.486;6.610;2023-10-31T18:12:48;11.70;99.90
3005;DHT22;1512;51.486;6.610;2023-10-31T18:16:58;11.80;99.90
3005;DHT22;1512;51.486;6.610;2023-10-31T18:21:07;11.80;99.90
3005;DHT22;1512;51.486;6.610;2023-10-31T18:25:16;11.70;99.90
3005;DHT22;1512;51.486;6.610;2023-10-31T18:29:24;11.70;99.90
3005;DHT22;1512;51.486;6.610;2023-10-31T18:33:33;11.70;99.90
3005;DHT22;1512;51.486;6.610;2023-10-31T18:37:43;11.70;99.90
3005;DHT22;1512;51.486;6.610;2023-10-31T18:41:52;11.70;99.90
3005;DHT22;1512;51.486;6.610;2023-10-31T18:46:02;11.70;99.90
3005;DHT22;1512;51.486;6.610;2023-10-31T18:50:12;11.70;99.90
3005;DHT22;1512;51.486;6.610;2023-10-31T18:54:21;11.60;99.90
3005;DHT22;1512;51.486;6.610;2023-10-31T18:58:29;11.60;99.90
3005;DHT22;1512;51.486;6.610;2023-10-31T19:02:38;11.60;99.90
3005;DHT22;1512;51.486;6.610;2023-10-31T19:06:47;11.60;99.90
3005;DHT22;1512;51.486;6.610;2023-10-31T19:10:55;11.60;99.90
3005;DHT22;1512;51.486;6.610;2023-10-31T19:15:05;11.60;99.90
3005;DHT22;1512;51.486;6.610;2023-10-31T19:19:14;11.60;99.90
3005;DHT22;1512;51.486;6.610;2023-10-31T19:23:22;11.60;99.90
3005;DHT22;1512;51.486;6.610;2023-10-31T19:27:31;11.60;99.90
3005;DHT22;1512;51.486;6.610;2023-10-31T19:31:40;11.60;99.90
3005;DHT22;1512;51.486;6.610;2023-10-31T19:35:50;11.60;99.90
3005;DHT22;1512;51.486;6.610;2023-10-31T19:39:59;11.60;99.90
3005;DHT22;1512;51.486;6.610;2023-10-31T19:44:07;11.60;99.90
3005;DHT22;1512;51.486;6.610;2023-10-31T19:48:16;11.60;99.90
3005;DHT22;1512;51.486;6.610;2023-10-31T19:52:25;11.60;99.90
3005;DHT22;1512;51.486;6.610;2023-10-31T19:56:34;11.60;99.90
3005;DHT22;1512;51.486;6.610;2023-10-31T20:00:43;11.60;99.90
3005;DHT22;1512;51.486;6.610;2023-10-31T20:04:51;11.50;99.90
3005;DHT22;1512;51.486;6.610;2023-10-31T20:09:00;11.50;99.90
3005;DHT22;1512;51.486;6.610;2023-10-31T20:13:09;11.50;99.90
3005;DHT22;1512;51.486;6.610;2023-10-31T20:17:17;11.50;99.90
3005;DHT22;1512;51.486;6.610;2023-10-31T20:21:26;11.50;99.90
3005;DHT22;1512;51.486;6.610;2023-10-31T20:25:35;11.50;99.90
3005;DHT22;1512;51.486;6.610;2023-10-31T20:29:44;11.50;99.90
3005;DHT22;1512;51.486;6.610;2023-10-31T20:33:53;11.50;99.90
3005;DHT22;1512;51.486;6.610;2023-10-31T20:38:21;11.50;99.90
3005;DHT22;1512;51.486;6.610;2023-10-31T20:42:31;11.40;99.90
3005;DHT22;1512;51.486;6.610;2023-10-31T20:46:41;11.40;99.90
3005;DHT22;1512;51.486;6.610;2023-10-31T20:50:51;11.40;99.90
3005;DHT22;1512;51.486;6.610;2023-10-31T20:55:00;11.40;99.90
3005;DHT22;1512;51.486;6.610;2023-10-31T20:59:09;11.40;99.90
3005;DHT22;1512;51.486;6.610;2023-10-31T21:03:18;11.40;99.90
3005;DHT22;1512;51.486;6.610;2023-10-31T21:07:26;11.40;99.90
3005;DHT22;1512;51.486;6.610;2023-10-31T21:11:35;11.40;99.90
3005;DHT22;1512;51.486;6.610;2023-10-31T21:16:03;11.40;99.90
3005;DHT22;1512;51.486;6.610;2023-10-31T21:20:13;11.40;99.90
3005;DHT22;1512;51.486;6.610;2023-10-31T21:24:21;11.30;99.90
3005;DHT22;1512;51.486;6.610;2023-10-31T21:28:30;11.30;99.90
3005;DHT22;1512;51.486;6.610;2023-10-31T21:32:39;11.30;99.90
3005;DHT22;1512;51.486;6.610;2023-10-31T21:36:48;11.20;99.90
3005;DHT22;1512;51.486;6.610;2023-10-31T21:40:56;11.20;99.90
3005;DHT22;1512;51.486;6.610;2023-10-31T21:45:06;11.10;99.90
3005;DHT22;1512;51.486;6.610;2023-10-31T21:49:15;11.10;99.90
3005;DHT22;1512;51.486;6.610;2023-10-31T21:53:24;11.10;99.90
3005;DHT22;1512;51.486;6.610;2023-10-31T21:57:33;11.10;99.90
3005;DHT22;1512;51.486;6.610;2023-10-31T22:01:42;11.20;99.90
3005;DHT22;1512;51.486;6.610;2023-10-31T22:05:51;11.20;99.90
3005;DHT22;1512;51.486;6.610;2023-10-31T22:09:59;11.20;99.90
3005;DHT22;1512;51.486;6.610;2023-10-31T22:14:08;11.20;99.90
3005;DHT22;1512;51.486;6.610;2023-10-31T22:18:17;11.20;99.90
3005;DHT22;1512;51.486;6.610;2023-10-31T22:22:26;11.20;99.90
3005;DHT22;1512;51.486;6.610;2023-10-31T22:26:34;11.20;99.90
3005;DHT22;1512;51.486;6.610;2023-10-31T22:30:43;11.20;99.90
3005;DHT22;1512;51.486;6.610;2023-10-31T22:34:52;11.20;99.90
3005;DHT22;1512;51.486;6.610;2023-10-31T22:39:01;11.20;99.90
3005;DHT22;1512;51.486;6.610;2023-10-31T22:43:10;11.30;99.90
3005;DHT22;1512;51.486;6.610;2023-10-31T22:47:19;11.30;99.90
3005;DHT22;1512;51.486;6.610;2023-10-31T22:51:27;11.30;99.90
3005;DHT22;1512;51.486;6.610;2023-10-31T22:55:36;11.30;99.90
3005;DHT22;1512;51.486;6.610;2023-10-31T22:59:45;11.40;99.90
3005;DHT22;1512;51.486;6.610;2023-10-31T23:03:53;11.40;99.90
3005;DHT22;1512;51.486;6.610;2023-10-31T23:08:02;11.50;99.90
3005;DHT22;1512;51.486;6.610;2023-10-31T23:12:11;11.50;99.90
3005;DHT22;1512;51.486;6.610;2023-10-31T23:16:20;11.50;99.90
3005;DHT22;1512;51.486;6.610;2023-10-31T23:20:28;11.60;99.90
3005;DHT22;1512;51.486;6.610;2023-10-31T23:24:37;11.60;99.90
3005;DHT22;1512;51.486;6.610;2023-10-31T23:28:46;11.60;99.90
3005;DHT22;1512;51.486;6.610;2023-10-31T23:32:54;11.60;99.90
3005;DHT22;1512;51.486;6.610;2023-10-31T23:37:03;11.60;99.90
3005;DHT22;1512;51.486;6.610;2023-10-31T23:41:12;11.60;99.90
3005;DHT22;1512;51.486;6.610;2023-10-31T23:45:21;11.50;99.90
3005;DHT22;1512;51.486;6.610;2023-10-31T23:49:29;11.50;99.90
3005;DHT22;1512;51.486;6.610;2023-10-31T23:53:38;11.50;99.90
3005;DHT22;1512;51.486;6.610;2023-10-31T23:57:47;11.50;99.90
